createdAt,value
2018-12-22T00:00:40.341Z,79.57
2018-12-22T00:01:40.327Z,79.91
2018-12-22T00:02:40.342Z,79.91
2018-12-22T00:03:40.303Z,80.33
2018-12-22T00:04:40.293Z,79.91
2018-12-22T00:05:40.283Z,79.71
2018-12-22T00:06:40.268Z,80.39
2018-12-22T00:07:40.260Z,79.57
2018-12-22T00:08:40.268Z,79.47
2018-12-22T00:09:40.240Z,79.68
2018-12-22T00:10:40.225Z,79.50
2018-12-22T00:11:40.212Z,79.91
2018-12-22T00:12:40.202Z,79.82
2018-12-22T00:13:40.210Z,79.91
2018-12-22T00:14:40.175Z,79.82
2018-12-22T00:15:40.173Z,80.02
2018-12-22T00:16:40.158Z,80.43
2018-12-22T00:17:40.141Z,79.91
2018-12-22T00:18:40.149Z,80.02
2018-12-22T00:19:40.116Z,80.12
2018-12-22T00:20:40.106Z,80.02
2018-12-22T00:21:40.093Z,79.82
2018-12-22T00:22:40.081Z,79.91
2018-12-22T00:23:40.091Z,80.12
2018-12-22T00:24:40.061Z,79.82
2018-12-22T00:25:40.049Z,79.71
2018-12-22T00:26:40.038Z,80.22
2018-12-22T00:27:40.024Z,80.02
2018-12-22T00:28:40.043Z,80.43
2018-12-22T00:29:40.000Z,80.43
2018-12-22T00:30:39.988Z,80.43
2018-12-22T00:31:39.982Z,80.43
2018-12-22T00:32:39.974Z,80.43
2018-12-22T00:33:39.957Z,80.94
2018-12-22T00:34:39.960Z,81.35
2018-12-22T00:35:39.933Z,80.94
2018-12-22T00:36:39.918Z,80.53
2018-12-22T00:37:39.908Z,81.76
2018-12-22T00:38:39.895Z,80.63
2018-12-22T00:39:39.903Z,80.63
2018-12-22T00:40:39.872Z,81.86
2018-12-22T00:41:39.866Z,81.45
2018-12-22T00:42:39.848Z,81.86
2018-12-22T00:43:39.836Z,81.56
2018-12-22T00:44:39.846Z,82.07
2018-12-22T00:45:39.914Z,81.76
2018-12-22T00:46:39.802Z,81.76
2018-12-22T00:47:39.790Z,81.96
2018-12-22T00:48:39.778Z,81.96
2018-12-22T00:49:39.785Z,82.17
2018-12-22T00:50:39.758Z,82.68
2018-12-22T00:51:39.759Z,82.37
2018-12-22T00:52:39.737Z,82.98
2018-12-22T00:53:39.734Z,82.98
2018-12-22T00:54:39.729Z,83.44
2018-12-22T00:55:39.700Z,83.64
2018-12-22T00:56:39.688Z,83.74
2018-12-22T00:57:39.682Z,83.70
2018-12-22T00:58:39.666Z,83.84
2018-12-22T00:59:39.651Z,83.64
2018-12-22T01:00:39.659Z,82.92
2018-12-22T01:01:39.628Z,83.54
2018-12-22T01:02:39.658Z,83.64
2018-12-22T01:03:39.604Z,83.74
2018-12-22T01:04:39.595Z,83.64
2018-12-22T01:05:39.599Z,83.64
2018-12-22T01:06:39.569Z,83.03
2018-12-22T01:07:39.558Z,82.92
2018-12-22T01:08:39.547Z,83.74
2018-12-22T01:09:39.534Z,82.82
2018-12-22T01:10:39.554Z,83.03
2018-12-22T01:11:39.560Z,83.84
2018-12-22T01:12:39.500Z,83.60
2018-12-22T01:13:39.489Z,83.74
2018-12-22T01:14:39.477Z,83.54
2018-12-22T01:15:39.489Z,83.84
2018-12-22T01:16:39.453Z,83.64
2018-12-22T01:17:39.442Z,83.84
2018-12-22T01:18:39.430Z,83.64
2018-12-22T01:19:39.418Z,83.84
2018-12-22T01:20:39.415Z,84.36
2018-12-22T01:21:39.416Z,84.87
2018-12-22T01:22:39.383Z,85.07
2018-12-22T01:23:39.372Z,86.51
2018-12-22T01:24:39.361Z,87.26
2018-12-22T01:25:39.403Z,86.44
2018-12-22T01:26:39.356Z,87.88
2018-12-22T01:27:39.325Z,88.08
2018-12-22T01:28:39.776Z,88.29
2018-12-22T01:29:39.302Z,89.45
2018-12-22T01:30:39.292Z,89.56
2018-12-22T01:31:39.296Z,89.76
2018-12-22T01:32:39.268Z,90.48
2018-12-22T01:33:39.257Z,90.69
2018-12-22T01:34:39.247Z,91.50
2018-12-22T01:35:39.234Z,91.65
2018-12-22T01:36:39.240Z,92.57
2018-12-22T01:37:39.210Z,91.96
2018-12-22T01:38:39.198Z,92.68
2018-12-22T01:39:39.186Z,92.16
2018-12-22T01:40:39.174Z,92.16
2018-12-22T01:41:39.185Z,92.36
2018-12-22T01:42:39.151Z,92.47
2018-12-22T01:43:39.146Z,92.16
2018-12-22T01:44:39.133Z,92.36
2018-12-22T01:45:39.116Z,93.23
2018-12-22T01:46:39.107Z,94.46
2018-12-22T01:47:39.113Z,93.95
2018-12-22T01:48:39.081Z,94.46
2018-12-22T01:49:39.070Z,94.26
2018-12-22T01:50:39.065Z,94.46
2018-12-22T01:51:39.049Z,94.36
2018-12-22T01:52:39.057Z,95.07
2018-12-22T01:53:39.024Z,95.49
2018-12-22T01:54:39.012Z,95.18
2018-12-22T01:55:39.004Z,95.39
2018-12-22T01:56:38.990Z,95.79
2018-12-22T01:57:38.997Z,95.28
2018-12-22T01:58:38.966Z,95.39
2018-12-22T01:59:38.957Z,95.39
2018-12-22T02:00:38.943Z,94.77
2018-12-22T02:01:38.930Z,94.67
2018-12-22T02:02:38.938Z,94.77
2018-12-22T02:03:38.908Z,95.07
2018-12-22T02:04:38.898Z,95.28
2018-12-22T02:05:38.884Z,95.18
2018-12-22T02:06:38.872Z,95.79
2018-12-22T02:07:38.883Z,95.90
2018-12-22T02:08:38.851Z,95.79
2018-12-22T02:09:38.840Z,95.79
2018-12-22T02:10:38.827Z,96.00
2018-12-22T02:11:38.815Z,96.10
2018-12-22T02:12:38.803Z,96.00
2018-12-22T02:13:38.812Z,96.25
2018-12-22T02:14:38.780Z,96.92
2018-12-22T02:15:38.770Z,96.51
2018-12-22T02:16:38.757Z,96.25
2018-12-22T02:17:38.745Z,96.51
2018-12-22T02:18:38.754Z,97.17
2018-12-22T02:19:38.723Z,96.82
2018-12-22T02:20:38.712Z,96.62
2018-12-22T02:21:38.699Z,96.41
2018-12-22T02:22:38.689Z,96.92
2018-12-22T02:23:38.698Z,96.82
2018-12-22T02:24:38.670Z,95.94
2018-12-22T02:25:38.654Z,95.90
2018-12-22T02:26:38.642Z,95.90
2018-12-22T02:27:38.630Z,95.69
2018-12-22T02:28:38.635Z,95.69
2018-12-22T02:29:38.606Z,95.84
2018-12-22T02:30:38.597Z,95.18
2018-12-22T02:31:38.584Z,95.18
2018-12-22T02:32:38.582Z,96.10
2018-12-22T02:33:38.579Z,95.69
2018-12-22T02:34:38.551Z,95.90
2018-12-22T02:35:38.538Z,96.31
2018-12-22T02:36:38.528Z,96.51
2018-12-22T02:37:38.516Z,96.77
2018-12-22T02:38:38.559Z,97.33
2018-12-22T02:39:38.495Z,97.07
2018-12-22T02:40:38.480Z,97.69
2018-12-22T02:41:38.469Z,97.07
2018-12-22T02:42:38.459Z,97.58
2018-12-22T02:43:38.445Z,97.58
2018-12-22T02:44:38.453Z,97.58
2018-12-22T02:45:38.423Z,97.48
2018-12-22T02:46:38.418Z,97.48
2018-12-22T02:47:38.400Z,97.63
2018-12-22T02:48:38.387Z,97.94
2018-12-22T02:49:38.395Z,97.69
2018-12-22T02:50:38.364Z,97.69
2018-12-22T02:51:38.354Z,98.20
2018-12-22T02:52:38.340Z,98.10
2018-12-22T02:53:38.329Z,97.89
2018-12-22T02:54:38.366Z,97.58
2018-12-22T02:55:38.307Z,97.79
2018-12-22T02:56:38.296Z,98.41
2018-12-22T02:57:38.283Z,98.61
2018-12-22T02:58:38.272Z,98.51
2018-12-22T02:59:38.261Z,97.89
2018-12-22T03:00:38.279Z,97.79
2018-12-22T03:01:38.237Z,98.30
2018-12-22T03:02:38.225Z,98.30
2018-12-22T03:03:38.212Z,98.51
2018-12-22T03:04:38.202Z,99.02
2018-12-22T03:05:38.209Z,98.51
2018-12-22T03:06:38.181Z,98.41
2018-12-22T03:07:38.166Z,98.61
2018-12-22T03:08:38.161Z,98.30
2018-12-22T03:09:38.151Z,98.41
2018-12-22T03:10:38.151Z,98.71
2018-12-22T03:11:38.122Z,99.12
2018-12-22T03:12:38.110Z,99.33
2018-12-22T03:13:38.098Z,99.12
2018-12-22T03:14:38.104Z,99.33
2018-12-22T03:15:38.074Z,98.92
2018-12-22T03:16:38.065Z,99.02
2018-12-22T03:17:38.051Z,99.12
2018-12-22T03:18:38.039Z,99.02
2018-12-22T03:19:38.056Z,99.43
2018-12-22T03:20:38.016Z,99.07
2018-12-22T03:21:38.006Z,99.27
2018-12-22T03:22:37.993Z,99.33
2018-12-22T03:23:37.984Z,98.82
2018-12-22T03:24:37.970Z,98.45
2018-12-22T03:25:37.978Z,98.86
2018-12-22T03:26:37.949Z,99.17
2018-12-22T03:27:37.934Z,99.38
2018-12-22T03:28:37.925Z,98.71
2018-12-22T03:29:38.026Z,98.82
2018-12-22T03:30:37.921Z,98.82
2018-12-22T03:31:37.900Z,98.76
2018-12-22T03:32:37.880Z,98.92
2018-12-22T03:33:37.866Z,98.76
2018-12-22T03:34:37.856Z,98.86
2018-12-22T03:35:37.863Z,98.86
2018-12-22T03:36:37.843Z,98.55
2018-12-22T03:37:37.821Z,98.96
2018-12-22T03:38:37.809Z,97.89
2018-12-22T03:39:37.798Z,97.94
2018-12-22T03:40:37.824Z,97.73
2018-12-22T03:41:37.776Z,97.99
2018-12-22T03:42:37.771Z,97.79
2018-12-22T03:43:37.755Z,97.58
2018-12-22T03:44:37.742Z,97.58
2018-12-22T03:45:37.727Z,97.58
2018-12-22T03:46:37.734Z,97.79
2018-12-22T03:47:37.705Z,96.66
2018-12-22T03:48:37.692Z,96.77
2018-12-22T03:49:37.683Z,96.87
2018-12-22T03:50:37.668Z,96.72
2018-12-22T03:51:37.675Z,96.62
2018-12-22T03:52:37.648Z,96.82
2018-12-22T03:53:37.633Z,96.82
2018-12-22T03:54:37.626Z,97.23
2018-12-22T03:55:37.615Z,96.97
2018-12-22T03:56:37.617Z,97.13
2018-12-22T03:57:37.586Z,96.72
2018-12-22T03:58:37.577Z,96.72
2018-12-22T03:59:37.566Z,97.07
2018-12-22T04:00:37.553Z,97.44
2018-12-22T04:01:37.563Z,97.58
2018-12-22T04:02:37.530Z,97.38
2018-12-22T04:03:37.519Z,97.89
2018-12-22T04:04:37.511Z,98.61
2018-12-22T04:05:37.497Z,98.82
2018-12-22T04:06:37.483Z,98.61
2018-12-22T04:07:37.497Z,98.82
2018-12-22T04:08:37.460Z,99.27
2018-12-22T04:09:37.450Z,99.48
2018-12-22T04:10:37.435Z,99.22
2018-12-22T04:11:37.424Z,99.27
2018-12-22T04:12:37.431Z,99.74
2018-12-22T04:13:37.400Z,99.99
2018-12-22T04:14:37.391Z,99.99
2018-12-22T04:15:37.378Z,99.99
2018-12-22T04:16:37.385Z,99.99
2018-12-22T04:17:37.353Z,99.99
2018-12-22T04:18:37.352Z,99.99
2018-12-22T04:19:37.331Z,99.33
2018-12-22T04:20:37.324Z,99.38
2018-12-22T04:21:37.353Z,99.48
2018-12-22T04:22:37.296Z,99.22
2018-12-22T04:23:37.285Z,99.12
2018-12-22T04:24:37.273Z,99.43
2018-12-22T04:25:37.262Z,99.38
2018-12-22T04:26:37.251Z,99.33
2018-12-22T04:27:37.258Z,99.12
2018-12-22T04:28:37.226Z,99.48
2018-12-22T04:29:37.215Z,98.71
2018-12-22T04:30:37.208Z,98.10
2018-12-22T04:31:37.195Z,97.48
2018-12-22T04:32:37.207Z,97.33
2018-12-22T04:33:37.168Z,97.69
2018-12-22T04:34:37.159Z,97.85
2018-12-22T04:35:37.147Z,97.48
2018-12-22T04:36:37.238Z,97.48
2018-12-22T04:37:37.124Z,97.69
2018-12-22T04:38:37.132Z,97.85
2018-12-22T04:39:37.102Z,97.58
2018-12-22T04:40:37.087Z,97.48
2018-12-22T04:41:37.078Z,97.58
2018-12-22T04:42:37.065Z,97.58
2018-12-22T04:43:37.072Z,97.99
2018-12-22T04:44:37.042Z,98.20
2018-12-22T04:45:37.028Z,97.48
2018-12-22T04:46:37.017Z,97.48
2018-12-22T04:47:37.007Z,97.44
2018-12-22T04:48:37.014Z,97.58
2018-12-22T04:49:36.983Z,97.58
2018-12-22T04:50:36.972Z,97.48
2018-12-22T04:51:36.960Z,96.62
2018-12-22T04:52:36.954Z,97.33
2018-12-22T04:53:36.955Z,96.97
2018-12-22T04:54:36.928Z,95.90
2018-12-22T04:55:36.914Z,96.92
2018-12-22T04:56:36.900Z,96.51
2018-12-22T04:57:36.891Z,97.13
2018-12-22T04:58:36.896Z,97.13
2018-12-22T04:59:43.021Z,96.72
2018-12-22T05:00:37.856Z,96.72
2018-12-22T05:01:36.842Z,96.72
2018-12-22T05:02:36.831Z,97.13
2018-12-22T05:03:36.839Z,96.10
2018-12-22T05:04:36.809Z,97.13
2018-12-22T05:05:36.797Z,96.92
2018-12-22T05:06:36.784Z,96.20
2018-12-22T05:07:36.773Z,95.69
2018-12-22T05:08:36.779Z,95.79
2018-12-22T05:09:36.749Z,95.54
2018-12-22T05:10:36.736Z,96.00
2018-12-22T05:11:36.728Z,95.79
2018-12-22T05:12:36.714Z,95.59
2018-12-22T05:13:36.728Z,96.16
2018-12-22T05:14:36.696Z,96.20
2018-12-22T05:15:36.681Z,97.23
2018-12-22T05:16:36.669Z,97.23
2018-12-22T05:17:36.657Z,96.72
2018-12-22T05:18:36.646Z,96.41
2018-12-22T05:19:36.652Z,97.33
2018-12-22T05:20:36.622Z,97.64
2018-12-22T05:21:36.609Z,97.74
2018-12-22T05:22:36.600Z,97.64
2018-12-22T05:23:36.604Z,97.03
2018-12-22T05:24:36.578Z,97.03
2018-12-22T05:25:36.563Z,97.13
2018-12-22T05:26:36.552Z,97.23
2018-12-22T05:27:36.546Z,96.98
2018-12-22T05:28:36.552Z,96.41
2018-12-22T05:29:36.515Z,97.03
2018-12-22T05:30:36.506Z,97.03
2018-12-22T05:31:36.497Z,97.13
2018-12-22T05:32:36.483Z,97.74
2018-12-22T05:33:36.470Z,97.44
2018-12-22T05:34:36.478Z,97.44
2018-12-22T05:35:36.448Z,97.85
2018-12-22T05:36:36.437Z,97.64
2018-12-22T05:37:36.428Z,97.74
2018-12-22T05:38:36.412Z,97.85
2018-12-22T05:39:36.418Z,97.95
2018-12-22T05:40:36.388Z,98.05
2018-12-22T05:41:36.379Z,98.87
2018-12-22T05:42:36.365Z,98.25
2018-12-22T05:43:36.353Z,97.95
2018-12-22T05:44:36.365Z,97.74
2018-12-22T05:45:36.330Z,97.64
2018-12-22T05:46:36.321Z,97.95
2018-12-22T05:47:36.306Z,97.95
2018-12-22T05:48:36.297Z,97.85
2018-12-22T05:49:36.285Z,98.05
2018-12-22T05:50:36.291Z,97.85
2018-12-22T05:51:36.262Z,97.95
2018-12-22T05:52:36.252Z,98.16
2018-12-22T05:53:36.240Z,97.54
2018-12-22T05:54:36.227Z,97.03
2018-12-22T05:55:36.233Z,97.03
2018-12-22T05:56:36.203Z,96.82
2018-12-22T05:57:36.191Z,97.23
2018-12-22T05:58:36.181Z,97.03
2018-12-22T05:59:36.169Z,96.72
2018-12-22T06:00:36.179Z,97.33
2018-12-22T06:01:36.150Z,97.13
2018-12-22T06:02:36.137Z,96.41
2018-12-22T06:03:36.122Z,96.00
2018-12-22T06:04:36.111Z,95.69
2018-12-22T06:05:36.119Z,95.79
2018-12-22T06:06:36.088Z,95.69
2018-12-22T06:07:36.077Z,95.79
2018-12-22T06:08:36.063Z,95.90
2018-12-22T06:09:36.054Z,95.59
2018-12-22T06:10:36.065Z,95.90
2018-12-22T06:11:36.031Z,96.00
2018-12-22T06:12:36.017Z,96.00
2018-12-22T06:13:36.006Z,96.00
2018-12-22T06:14:35.995Z,96.20
2018-12-22T06:15:35.982Z,96.62
2018-12-22T06:16:35.992Z,96.82
2018-12-22T06:17:35.961Z,96.62
2018-12-22T06:18:35.952Z,96.31
2018-12-22T06:19:35.937Z,96.41
2018-12-22T06:20:35.927Z,95.90
2018-12-22T06:21:35.932Z,95.90
2018-12-22T06:22:35.901Z,95.75
2018-12-22T06:23:35.891Z,95.75
2018-12-22T06:24:35.879Z,95.86
2018-12-22T06:25:35.868Z,95.44
2018-12-22T06:26:35.874Z,95.03
2018-12-22T06:27:35.843Z,95.75
2018-12-22T06:28:35.835Z,95.24
2018-12-22T06:29:35.820Z,95.14
2018-12-22T06:30:35.821Z,94.83
2018-12-22T06:31:35.816Z,93.49
2018-12-22T06:32:35.787Z,93.49
2018-12-22T06:33:35.774Z,94.11
2018-12-22T06:34:35.766Z,93.08
2018-12-22T06:35:35.752Z,93.19
2018-12-22T06:36:35.758Z,93.55
2018-12-22T06:37:35.727Z,93.49
2018-12-22T06:38:35.718Z,93.70
2018-12-22T06:39:35.706Z,93.70
2018-12-22T06:40:35.694Z,93.39
2018-12-22T06:41:35.700Z,93.39
2018-12-22T06:42:35.672Z,93.60
2018-12-22T06:43:35.658Z,93.19
2018-12-22T06:44:35.646Z,92.88
2018-12-22T06:45:35.639Z,93.49
2018-12-22T06:46:35.643Z,93.60
2018-12-22T06:47:35.618Z,93.39
2018-12-22T06:48:35.600Z,93.49
2018-12-22T06:49:35.593Z,94.21
2018-12-22T06:50:35.578Z,94.11
2018-12-22T06:51:35.583Z,95.24
2018-12-22T06:52:35.556Z,95.14
2018-12-22T06:53:35.543Z,95.86
2018-12-22T06:54:35.531Z,95.65
2018-12-22T06:55:35.520Z,96.16
2018-12-22T06:56:35.527Z,96.06
2018-12-22T06:57:35.496Z,95.75
2018-12-22T06:58:35.486Z,95.54
2018-12-22T06:59:35.473Z,96.06
2018-12-22T07:00:35.461Z,96.10
2018-12-22T07:01:35.469Z,96.00
2018-12-22T07:02:35.438Z,95.75
2018-12-22T07:03:35.427Z,96.06
2018-12-22T07:04:35.415Z,95.28
2018-12-22T07:05:35.405Z,95.18
2018-12-22T07:06:35.413Z,95.18
2018-12-22T07:07:35.384Z,95.39
2018-12-22T07:08:35.369Z,94.77
2018-12-22T07:09:35.374Z,94.77
2018-12-22T07:10:35.345Z,94.36
2018-12-22T07:11:35.352Z,94.62
2018-12-22T07:12:35.322Z,95.59
2018-12-22T07:13:35.310Z,95.28
2018-12-22T07:14:35.299Z,95.39
2018-12-22T07:15:35.287Z,95.90
2018-12-22T07:16:35.298Z,95.79
2018-12-22T07:17:35.264Z,95.39
2018-12-22T07:18:35.255Z,95.28
2018-12-22T07:19:35.240Z,95.59
2018-12-22T07:20:35.233Z,94.61
2018-12-22T07:21:35.220Z,95.18
2018-12-22T07:22:35.228Z,95.69
2018-12-22T07:23:35.194Z,95.43
2018-12-22T07:24:35.184Z,95.39
2018-12-22T07:25:35.171Z,95.59
2018-12-22T07:26:35.160Z,95.23
2018-12-22T07:27:35.165Z,95.74
2018-12-22T07:28:35.138Z,95.84
2018-12-22T07:29:35.129Z,95.32
2018-12-22T07:30:35.116Z,95.32
2018-12-22T07:31:35.104Z,95.23
2018-12-22T07:32:35.197Z,95.43
2018-12-22T07:33:35.079Z,95.23
2018-12-22T07:34:35.068Z,95.17
2018-12-22T07:35:35.056Z,95.57
2018-12-22T07:36:35.046Z,96.15
2018-12-22T07:37:35.053Z,95.47
2018-12-22T07:38:35.025Z,95.23
2018-12-22T07:39:35.009Z,95.47
2018-12-22T07:40:34.998Z,95.06
2018-12-22T07:41:34.985Z,95.17
2018-12-22T07:42:34.991Z,95.12
2018-12-22T07:43:34.966Z,95.43
2018-12-22T07:44:34.954Z,95.27
2018-12-22T07:45:34.941Z,94.65
2018-12-22T07:46:34.930Z,94.10
2018-12-22T07:47:34.933Z,94.04
2018-12-22T07:48:34.907Z,94.40
2018-12-22T07:49:34.894Z,93.93
2018-12-22T07:50:34.882Z,93.68
2018-12-22T07:51:34.868Z,93.42
2018-12-22T07:52:34.882Z,94.40
2018-12-22T07:53:34.846Z,93.17
2018-12-22T07:54:34.836Z,93.68
2018-12-22T07:55:34.824Z,92.46
2018-12-22T07:56:34.812Z,92.55
2018-12-22T07:57:34.819Z,92.14
2018-12-22T07:58:34.791Z,92.35
2018-12-22T07:59:34.777Z,91.84
2018-12-22T08:00:35.297Z,93.12
2018-12-22T08:01:34.755Z,91.84
2018-12-22T08:02:34.784Z,92.60
2018-12-22T08:03:34.730Z,92.19
2018-12-22T08:04:34.722Z,91.12
2018-12-22T08:05:38.654Z,92.29
2018-12-22T08:06:34.700Z,91.74
2018-12-22T08:07:34.684Z,90.91
2018-12-22T08:08:34.695Z,91.84
2018-12-22T08:09:34.662Z,91.74
2018-12-22T08:10:34.650Z,91.02
2018-12-22T08:11:34.638Z,91.02
2018-12-22T08:12:34.626Z,91.12
2018-12-22T08:13:34.639Z,89.58
2018-12-22T08:14:34.606Z,89.89
2018-12-22T08:15:34.597Z,89.78
2018-12-22T08:16:34.581Z,89.58
2018-12-22T08:17:34.568Z,90.09
2018-12-22T08:18:34.578Z,89.69
2018-12-22T08:19:34.544Z,90.91
2018-12-22T08:20:34.536Z,90.81
2018-12-22T08:21:34.523Z,90.20
2018-12-22T08:22:34.512Z,90.30
2018-12-22T08:23:34.523Z,89.89
2018-12-22T08:24:34.487Z,89.89
2018-12-22T08:25:34.476Z,90.09
2018-12-22T08:26:34.464Z,89.48
2018-12-22T08:27:34.454Z,89.58
2018-12-22T08:28:34.458Z,89.17
2018-12-22T08:29:34.428Z,89.17
2018-12-22T08:30:34.417Z,89.58
2018-12-22T08:31:34.406Z,88.96
2018-12-22T08:32:34.395Z,88.66
2018-12-22T08:33:34.413Z,88.72
2018-12-22T08:34:34.370Z,88.66
2018-12-22T08:35:34.359Z,88.76
2018-12-22T08:36:34.347Z,89.27
2018-12-22T08:37:35.581Z,88.66
2018-12-22T08:38:34.330Z,87.79
2018-12-22T08:39:34.403Z,87.70
2018-12-22T08:40:34.301Z,88.00
2018-12-22T08:41:34.289Z,87.79
2018-12-22T08:42:34.278Z,88.92
2018-12-22T08:43:34.268Z,88.31
2018-12-22T08:44:34.275Z,89.27
2018-12-22T08:45:34.243Z,87.79
2018-12-22T08:46:34.230Z,88.35
2018-12-22T08:47:34.219Z,87.90
2018-12-22T08:48:34.206Z,88.41
2018-12-22T08:49:34.213Z,88.72
2018-12-22T08:50:34.184Z,88.45
2018-12-22T08:51:34.172Z,88.62
2018-12-22T08:52:34.159Z,87.79
2018-12-22T08:53:34.153Z,88.92
2018-12-22T08:54:34.154Z,87.84
2018-12-22T08:55:34.127Z,87.53
2018-12-22T08:56:34.111Z,87.63
2018-12-22T08:57:34.099Z,88.21
2018-12-22T08:58:34.090Z,87.49
2018-12-22T08:59:34.095Z,87.79
2018-12-22T09:00:34.066Z,87.94
2018-12-22T09:01:34.054Z,87.38
2018-12-22T09:02:34.043Z,87.90
2018-12-22T09:03:34.034Z,87.70
2018-12-22T09:04:34.036Z,86.57
2018-12-22T09:05:34.006Z,87.38
2018-12-22T09:06:34.020Z,87.28
2018-12-22T09:07:33.996Z,87.38
2018-12-22T09:08:34.079Z,87.90
2018-12-22T09:09:33.978Z,87.70
2018-12-22T09:10:33.950Z,87.90
2018-12-22T09:11:33.939Z,87.90
2018-12-22T09:12:33.925Z,87.90
2018-12-22T09:13:33.914Z,87.59
2018-12-22T09:14:33.922Z,87.38
2018-12-22T09:15:33.893Z,88.00
2018-12-22T09:16:33.880Z,87.70
2018-12-22T09:17:33.868Z,87.59
2018-12-22T09:18:33.857Z,88.10
2018-12-22T09:19:33.864Z,87.18
2018-12-22T09:20:33.840Z,87.79
2018-12-22T09:21:33.825Z,86.66
2018-12-22T09:22:33.811Z,86.66
2018-12-22T09:23:33.799Z,87.28
2018-12-22T09:24:33.806Z,87.28
2018-12-22T09:25:33.777Z,87.18
2018-12-22T09:26:33.764Z,87.24
2018-12-22T09:27:33.753Z,87.76
2018-12-22T09:28:33.741Z,88.00
2018-12-22T09:29:33.747Z,87.90
2018-12-22T09:30:33.718Z,87.28
2018-12-22T09:31:33.709Z,87.08
2018-12-22T09:32:33.695Z,87.08
2018-12-22T09:33:33.684Z,87.28
2018-12-22T09:34:33.711Z,87.96
2018-12-22T09:35:33.661Z,87.14
2018-12-22T09:36:33.649Z,87.10
2018-12-22T09:37:33.637Z,86.90
2018-12-22T09:38:33.624Z,86.69
2018-12-22T09:39:33.616Z,86.73
2018-12-22T09:40:33.623Z,86.93
2018-12-22T09:41:33.591Z,86.01
2018-12-22T09:42:33.581Z,87.04
2018-12-22T09:43:33.568Z,86.83
2018-12-22T09:44:33.556Z,86.32
2018-12-22T09:45:33.561Z,86.22
2018-12-22T09:46:33.532Z,86.73
2018-12-22T09:47:33.521Z,86.52
2018-12-22T09:48:33.513Z,85.80
2018-12-22T09:49:33.502Z,86.52
2018-12-22T09:50:33.513Z,85.91
2018-12-22T09:51:33.474Z,86.48
2018-12-22T09:52:33.463Z,85.77
2018-12-22T09:53:33.450Z,85.71
2018-12-22T09:54:33.439Z,86.69
2018-12-22T09:55:33.445Z,85.42
2018-12-22T09:56:33.416Z,83.95
2018-12-22T09:57:33.403Z,83.95
2018-12-22T09:58:33.392Z,83.84
2018-12-22T09:59:33.380Z,83.74
2018-12-22T10:00:33.389Z,83.54
2018-12-22T10:01:33.358Z,83.95
2018-12-22T10:02:33.346Z,83.78
2018-12-22T10:03:33.335Z,84.29
2018-12-22T10:04:33.322Z,83.95
2018-12-22T10:05:33.333Z,83.81
2018-12-22T10:06:33.301Z,82.07
2018-12-22T10:07:33.287Z,83.54
2018-12-22T10:08:33.275Z,83.84
2018-12-22T10:09:33.263Z,83.68
2018-12-22T10:10:33.252Z,83.78
2018-12-22T10:11:33.258Z,84.29
2018-12-22T10:12:33.233Z,84.44
2018-12-22T10:13:33.216Z,84.60
2018-12-22T10:14:33.206Z,84.70
2018-12-22T10:15:33.193Z,84.53
2018-12-22T10:16:33.201Z,84.64
2018-12-22T10:17:33.171Z,84.95
2018-12-22T10:18:33.158Z,84.23
2018-12-22T10:19:33.146Z,84.64
2018-12-22T10:20:33.136Z,85.36
2018-12-22T10:21:33.142Z,84.84
2018-12-22T10:22:33.110Z,84.23
2018-12-22T10:23:33.098Z,85.15
2018-12-22T10:24:33.087Z,84.84
2018-12-22T10:25:33.074Z,84.95
2018-12-22T10:26:33.087Z,85.25
2018-12-22T10:27:33.052Z,85.05
2018-12-22T10:28:33.041Z,84.19
2018-12-22T10:29:33.029Z,83.92
2018-12-22T10:30:33.016Z,84.33
2018-12-22T10:31:33.024Z,84.64
2018-12-22T10:32:32.994Z,84.44
2018-12-22T10:33:32.985Z,84.50
2018-12-22T10:34:32.971Z,85.11
2018-12-22T10:35:32.959Z,83.78
2018-12-22T10:36:33.003Z,83.54
2018-12-22T10:37:32.933Z,83.88
2018-12-22T10:38:32.923Z,83.58
2018-12-22T10:39:32.912Z,84.29
2018-12-22T10:40:32.899Z,84.60
2018-12-22T10:41:32.928Z,84.50
2018-12-22T10:42:32.875Z,84.60
2018-12-22T10:43:32.864Z,84.29
2018-12-22T10:44:32.853Z,84.70
2018-12-22T10:45:32.841Z,84.29
2018-12-22T10:46:32.829Z,84.50
2018-12-22T10:47:32.837Z,84.80
2018-12-22T10:48:32.805Z,84.80
2018-12-22T10:49:32.796Z,85.22
2018-12-22T10:50:32.781Z,84.50
2018-12-22T10:51:32.772Z,84.91
2018-12-22T10:52:32.777Z,84.09
2018-12-22T10:53:32.746Z,84.39
2018-12-22T10:54:32.736Z,84.39
2018-12-22T10:55:32.723Z,84.19
2018-12-22T10:56:32.710Z,83.88
2018-12-22T10:57:32.717Z,83.98
2018-12-22T10:58:32.687Z,84.29
2018-12-22T10:59:32.676Z,83.47
2018-12-22T11:00:32.663Z,82.71
2018-12-22T11:01:32.659Z,84.05
2018-12-22T11:02:32.660Z,83.60
2018-12-22T11:03:32.630Z,82.27
2018-12-22T11:04:32.617Z,82.07
2018-12-22T11:05:32.604Z,81.96
2018-12-22T11:06:32.594Z,82.37
2018-12-22T11:07:32.601Z,82.78
2018-12-22T11:08:32.570Z,82.78
2018-12-22T11:09:32.557Z,82.89
2018-12-22T11:10:32.544Z,83.60
2018-12-22T11:11:32.534Z,82.57
2018-12-22T11:12:32.546Z,81.93
2018-12-22T11:13:32.508Z,81.62
2018-12-22T11:14:32.497Z,81.45
2018-12-22T11:15:32.486Z,82.07
2018-12-22T11:16:32.476Z,81.96
2018-12-22T11:17:32.505Z,82.07
2018-12-22T11:18:32.451Z,81.82
2018-12-22T11:19:32.439Z,81.93
2018-12-22T11:20:32.427Z,81.24
2018-12-22T11:21:32.415Z,81.56
2018-12-22T11:22:32.407Z,80.94
2018-12-22T11:23:32.410Z,81.65
2018-12-22T11:24:32.382Z,81.45
2018-12-22T11:25:32.366Z,82.07
2018-12-22T11:26:32.355Z,81.65
2018-12-22T11:27:32.351Z,81.82
2018-12-22T11:28:32.348Z,82.68
2018-12-22T11:29:32.321Z,82.54
2018-12-22T11:30:32.307Z,81.17
2018-12-22T11:31:35.065Z,79.46
2018-12-22T11:32:32.283Z,78.23
2018-12-22T11:33:32.288Z,78.03
2018-12-22T11:34:32.261Z,77.89
2018-12-22T11:35:32.249Z,78.54
2018-12-22T11:36:32.235Z,79.05
2018-12-22T11:37:32.242Z,80.21
2018-12-22T11:38:32.212Z,80.48
2018-12-22T11:39:32.203Z,75.57
2018-12-22T11:40:32.191Z,72.41
2018-12-22T11:41:32.176Z,72.01
2018-12-22T11:42:32.183Z,70.15
2018-12-22T11:43:32.154Z,67.58
2018-12-22T11:44:32.142Z,69.67
2018-12-22T11:45:32.129Z,70.72
2018-12-22T11:46:32.120Z,71.97
2018-12-22T11:47:32.125Z,73.88
2018-12-22T11:48:32.096Z,75.95
2018-12-22T11:49:32.083Z,75.85
2018-12-22T11:50:32.072Z,76.35
2018-12-22T11:51:32.061Z,75.54
2018-12-22T11:52:32.071Z,75.74
2018-12-22T11:53:32.037Z,76.05
2018-12-22T11:54:32.026Z,76.50
2018-12-22T11:55:32.016Z,76.84
2018-12-22T11:56:32.003Z,77.79
2018-12-22T11:57:31.991Z,77.72
2018-12-22T11:58:31.998Z,78.34
2018-12-22T11:59:31.969Z,78.34
2018-12-22T12:00:31.957Z,78.23
2018-12-22T12:01:31.947Z,78.75
2018-12-22T12:02:31.953Z,78.95
2018-12-22T12:03:31.920Z,78.88
2018-12-22T12:04:31.909Z,78.23
2018-12-22T12:05:31.897Z,78.34
2018-12-22T12:06:31.888Z,78.58
2018-12-22T12:07:31.874Z,78.48
2018-12-22T12:08:31.883Z,79.09
2018-12-22T12:09:31.851Z,78.58
2018-12-22T12:10:31.839Z,79.64
2018-12-22T12:11:31.828Z,79.29
2018-12-22T12:12:31.814Z,78.99
2018-12-22T12:13:31.826Z,77.83
2018-12-22T12:14:31.792Z,77.72
2018-12-22T12:15:31.780Z,77.08
2018-12-22T12:16:31.768Z,77.14
2018-12-22T12:17:31.757Z,73.97
2018-12-22T12:18:31.764Z,71.97
2018-12-22T12:19:31.734Z,67.34
2018-12-22T12:20:31.723Z,64.21
2018-12-22T12:21:31.712Z,63.98
2018-12-22T12:22:31.699Z,63.37
2018-12-22T12:23:31.704Z,64.30
2018-12-22T12:24:31.677Z,67.03
2018-12-22T12:25:31.663Z,68.82
2018-12-22T12:26:31.653Z,69.53
2018-12-22T12:27:31.639Z,71.12
2018-12-22T12:28:31.653Z,71.80
2018-12-22T12:29:31.615Z,73.26
2018-12-22T12:30:31.603Z,75.16
2018-12-22T12:31:31.593Z,76.02
2018-12-22T12:32:31.580Z,79.22
2018-12-22T12:33:31.586Z,79.52
2018-12-22T12:34:31.557Z,80.07
2018-12-22T12:35:31.545Z,80.07
2018-12-22T12:36:31.537Z,79.25
2018-12-22T12:37:31.522Z,80.42
2018-12-22T12:38:31.533Z,79.84
2018-12-22T12:39:31.499Z,78.45
2018-12-22T12:40:31.485Z,80.19
2018-12-22T12:41:31.474Z,82.73
2018-12-22T12:42:31.464Z,84.42
2018-12-22T12:43:31.452Z,87.36
2018-12-22T12:44:31.459Z,87.85
2018-12-22T12:45:31.429Z,90.06
2018-12-22T12:46:31.418Z,91.64
2018-12-22T12:47:31.405Z,93.34
2018-12-22T12:48:31.392Z,93.44
2018-12-22T12:49:31.398Z,94.27
2018-12-22T12:50:31.371Z,94.99
2018-12-22T12:51:31.357Z,94.32
2018-12-22T12:52:31.347Z,94.68